createdAt,value
2022-11-20T00:01:58.061Z,100.00
2022-11-20T00:06:59.499Z,100.00
2022-11-20T00:12:00.849Z,100.00
2022-11-20T00:17:02.218Z,100.00
2022-11-20T00:22:03.538Z,100.00
2022-11-20T00:27:04.875Z,100.00
2022-11-20T00:32:06.245Z,100.00
2022-11-20T00:37:07.601Z,100.00
2022-11-20T00:42:09.027Z,100.00
2022-11-20T00:47:10.810Z,100.00
2022-11-20T00:52:12.126Z,100.00
2022-11-20T00:57:13.705Z,100.00
2022-11-20T01:02:17.278Z,100.00
2022-11-20T01:07:18.633Z,100.00
2022-11-20T01:12:20.070Z,100.00
2022-11-20T01:17:21.393Z,100.00
2022-11-20T01:22:22.728Z,100.00
2022-11-20T01:27:24.252Z,100.00
2022-11-20T01:32:25.554Z,100.00
2022-11-20T01:37:26.954Z,100.00
2022-11-20T01:42:47.017Z,100.00
2022-11-20T01:47:50.272Z,100.00
2022-11-20T01:53:01.320Z,100.00
2022-11-20T01:58:03.571Z,100.00
2022-11-20T02:03:07.506Z,100.00
2022-11-20T02:08:09.103Z,100.00
2022-11-20T02:13:28.967Z,100.00
2022-11-20T02:18:30.925Z,100.00
2022-11-20T02:23:51.194Z,100.00
2022-11-20T02:28:52.644Z,100.00
2022-11-20T02:33:58.085Z,100.00
2022-11-20T02:38:59.469Z,100.00
2022-11-20T02:44:01.173Z,100.00
2022-11-20T02:49:03.522Z,100.00
2022-11-20T02:54:04.962Z,100.00
2022-11-20T02:59:06.341Z,100.00
2022-11-20T03:04:07.671Z,100.00
2022-11-20T03:09:09.143Z,100.00
2022-11-20T03:14:10.454Z,100.00
2022-11-20T03:19:12.588Z,100.00
2022-11-20T03:24:14.113Z,100.00
2022-11-20T03:29:15.421Z,100.00
2022-11-20T03:34:16.743Z,100.00
2022-11-20T03:39:18.198Z,100.00
2022-11-20T03:44:22.041Z,100.00
2022-11-20T03:49:23.567Z,100.00
2022-11-20T03:54:25.070Z,100.00
2022-11-20T03:59:26.382Z,100.00
2022-11-20T04:04:27.714Z,100.00
2022-11-20T04:09:29.113Z,100.00
2022-11-20T04:14:30.436Z,100.00
2022-11-20T04:19:31.780Z,100.00
2022-11-20T04:24:33.091Z,100.00
2022-11-20T04:29:34.477Z,100.00
2022-11-20T04:34:35.817Z,100.00
2022-11-20T04:39:37.149Z,100.00
2022-11-20T04:44:38.529Z,100.00
2022-11-20T04:49:39.912Z,100.00
2022-11-20T04:54:41.261Z,100.00
2022-11-20T04:59:42.589Z,100.00
2022-11-20T05:04:44.205Z,100.00
2022-11-20T05:09:45.537Z,100.00
2022-11-20T05:14:46.933Z,100.00
2022-11-20T05:19:53.012Z,100.00
2022-11-20T05:24:54.608Z,100.00
2022-11-20T05:29:55.906Z,100.00
2022-11-20T05:34:57.235Z,100.00
2022-11-20T05:39:58.707Z,100.00
2022-11-20T05:45:00.549Z,100.00
2022-11-20T05:50:02.119Z,100.00
2022-11-20T05:55:03.594Z,100.00
2022-11-20T06:00:05.169Z,100.00
2022-11-20T06:05:06.636Z,100.00
2022-11-20T06:10:08.170Z,100.00
2022-11-20T06:15:09.771Z,100.00
2022-11-20T06:20:11.305Z,100.00
2022-11-20T06:25:12.866Z,100.00
2022-11-20T06:30:14.258Z,100.00
2022-11-20T06:35:15.595Z,100.00
2022-11-20T06:40:17.040Z,100.00
2022-11-20T06:45:18.350Z,100.00
2022-11-20T06:50:19.668Z,100.00
2022-11-20T06:55:21.029Z,100.00
2022-11-20T07:00:22.606Z,100.00
2022-11-20T07:05:23.985Z,100.00
2022-11-20T07:10:25.820Z,100.00
2022-11-20T07:15:27.375Z,100.00
2022-11-20T07:20:29.141Z,100.00
2022-11-20T07:25:31.527Z,100.00
2022-11-20T07:30:32.881Z,100.00
2022-11-20T07:35:34.205Z,100.00
2022-11-20T07:40:35.510Z,100.00
2022-11-20T07:45:36.814Z,100.00
2022-11-20T07:50:38.158Z,100.00
2022-11-20T07:55:39.533Z,100.00
2022-11-20T08:00:41.475Z,100.00
2022-11-20T08:05:42.820Z,100.00
2022-11-20T08:10:44.158Z,100.00
2022-11-20T08:15:49.062Z,100.00
2022-11-20T08:20:50.370Z,100.00
2022-11-20T08:25:52.229Z,100.00
2022-11-20T08:30:58.415Z,100.00
2022-11-20T08:36:03.974Z,100.00
2022-11-20T08:41:24.413Z,100.00
2022-11-20T08:46:27.163Z,100.00
2022-11-20T08:51:28.524Z,100.00
2022-11-20T08:56:29.889Z,100.00
2022-11-20T09:01:31.253Z,100.00
2022-11-20T09:06:32.628Z,100.00
2022-11-20T09:11:35.522Z,100.00
2022-11-20T09:16:36.836Z,100.00
2022-11-20T09:21:38.423Z,100.00
2022-11-20T09:26:39.755Z,100.00
2022-11-20T09:31:41.073Z,100.00
2022-11-20T09:36:42.416Z,100.00
2022-11-20T09:41:46.896Z,100.00
2022-11-20T09:46:57.378Z,100.00
2022-11-20T09:52:00.148Z,100.00
2022-11-20T09:57:04.421Z,100.00
2022-11-20T10:02:26.775Z,100.00
2022-11-20T10:07:35.089Z,100.00
2022-11-20T10:12:56.752Z,100.00
2022-11-20T10:18:17.320Z,100.00
2022-11-20T10:23:34.861Z,100.00
2022-11-20T10:28:36.517Z,99.24
2022-11-20T10:34:04.994Z,99.92
2022-11-20T10:39:07.303Z,99.90
2022-11-20T10:44:11.355Z,98.88
2022-11-20T10:49:17.457Z,97.98
2022-11-20T10:54:18.762Z,98.23
2022-11-20T10:59:23.261Z,97.63
2022-11-20T11:04:24.777Z,98.53
2022-11-20T11:09:33.081Z,97.31
2022-11-20T11:14:43.145Z,97.44
2022-11-20T11:19:44.464Z,96.73
2022-11-20T11:24:52.991Z,95.78
2022-11-20T11:30:14.975Z,95.60
2022-11-20T11:35:20.782Z,95.96
2022-11-20T11:40:24.585Z,94.99
2022-11-20T11:45:27.270Z,95.62
2022-11-20T11:50:29.828Z,96.03
2022-11-20T11:55:34.487Z,96.39
2022-11-20T12:00:36.482Z,97.75
2022-11-20T12:06:07.191Z,98.88
2022-11-20T12:11:11.512Z,98.25
2022-11-20T12:16:14.875Z,98.96
2022-11-20T12:21:28.439Z,99.95
2022-11-20T12:26:33.169Z,99.97
2022-11-20T12:31:34.464Z,100.00
2022-11-20T12:36:47.032Z,100.00
2022-11-20T12:42:33.598Z,99.64
2022-11-20T12:47:52.859Z,100.00
2022-11-20T12:52:57.501Z,100.00
2022-11-20T12:58:13.656Z,100.00
2022-11-20T13:03:28.912Z,100.00
2022-11-20T13:08:33.726Z,100.00
2022-11-20T13:13:35.047Z,100.00
2022-11-20T13:18:40.277Z,100.00
2022-11-20T13:23:41.583Z,100.00
2022-11-20T13:28:43.030Z,100.00
2022-11-20T13:33:45.913Z,100.00
2022-11-20T13:38:49.303Z,100.00
2022-11-20T13:43:50.955Z,100.00
2022-11-20T13:48:54.449Z,100.00
2022-11-20T13:54:08.243Z,100.00
2022-11-20T13:59:16.199Z,100.00
2022-11-20T14:04:21.473Z,100.00
2022-11-20T14:09:27.615Z,100.00
2022-11-20T14:14:30.413Z,100.00
2022-11-20T14:19:31.948Z,100.00
2022-11-20T14:24:33.295Z,100.00
2022-11-20T14:29:36.671Z,100.00
2022-11-20T14:34:42.720Z,100.00
2022-11-20T14:39:49.303Z,100.00
2022-11-20T14:44:51.548Z,100.00
2022-11-20T14:49:53.723Z,100.00
2022-11-20T14:54:56.395Z,100.00
2022-11-20T15:00:08.357Z,100.00
2022-11-20T15:05:10.170Z,100.00
2022-11-20T15:10:13.025Z,100.00
2022-11-20T15:15:17.804Z,100.00
2022-11-20T15:20:19.178Z,100.00
2022-11-20T15:25:20.642Z,100.00
2022-11-20T15:30:22.641Z,100.00
2022-11-20T15:35:23.954Z,100.00
2022-11-20T15:40:25.253Z,100.00
2022-11-20T15:45:27.038Z,100.00
2022-11-20T15:50:32.898Z,100.00
2022-11-20T15:55:34.283Z,100.00
2022-11-20T16:00:35.622Z,100.00
2022-11-20T16:05:36.949Z,100.00
2022-11-20T16:10:38.293Z,100.00
2022-11-20T16:15:45.701Z,100.00
2022-11-20T16:20:48.275Z,100.00
2022-11-20T16:25:50.211Z,100.00
2022-11-20T16:30:53.365Z,100.00
2022-11-20T16:35:54.677Z,100.00
2022-11-20T16:41:01.113Z,100.00
2022-11-20T16:46:13.078Z,100.00
2022-11-20T16:51:14.465Z,100.00
2022-11-20T16:56:17.495Z,100.00
2022-11-20T17:01:21.303Z,100.00
2022-11-20T17:06:24.071Z,100.00
2022-11-20T17:11:26.444Z,100.00
2022-11-20T17:16:27.954Z,100.00
2022-11-20T17:21:29.933Z,100.00
2022-11-20T17:26:31.289Z,100.00
2022-11-20T17:31:33.727Z,100.00
2022-11-20T17:36:35.103Z,100.00
2022-11-20T17:41:36.418Z,100.00
2022-11-20T17:46:38.010Z,100.00
2022-11-20T17:51:40.627Z,100.00
2022-11-20T17:57:00.380Z,100.00
2022-11-20T18:02:03.774Z,100.00
2022-11-20T18:07:05.465Z,100.00
2022-11-20T18:12:06.886Z,100.00
2022-11-20T18:17:09.513Z,100.00
2022-11-20T18:22:11.497Z,100.00
2022-11-20T18:27:14.685Z,100.00
2022-11-20T18:32:16.055Z,100.00
2022-11-20T18:37:17.551Z,100.00
2022-11-20T18:42:37.361Z,100.00
2022-11-20T18:47:40.256Z,100.00
2022-11-20T18:52:44.222Z,100.00
2022-11-20T18:57:45.536Z,100.00
2022-11-20T19:02:47.005Z,100.00
2022-11-20T19:07:48.352Z,100.00
2022-11-20T19:12:49.683Z,100.00
2022-11-20T19:17:51.992Z,100.00
2022-11-20T19:22:54.032Z,100.00
2022-11-20T19:27:55.345Z,100.00
2022-11-20T19:32:58.068Z,100.00
2022-11-20T19:38:04.196Z,100.00
2022-11-20T19:43:06.925Z,100.00
2022-11-20T19:48:08.723Z,100.00
2022-11-20T19:53:11.470Z,100.00
2022-11-20T19:58:12.817Z,100.00
2022-11-20T20:03:14.122Z,100.00
2022-11-20T20:08:17.127Z,100.00
2022-11-20T20:13:18.632Z,100.00
2022-11-20T20:18:19.974Z,100.00
2022-11-20T20:23:21.358Z,100.00
2022-11-20T20:28:22.676Z,100.00
2022-11-20T20:33:24.200Z,100.00
2022-11-20T20:38:25.539Z,100.00
2022-11-20T20:43:26.850Z,100.00
2022-11-20T20:48:28.187Z,100.00
2022-11-20T20:53:30.677Z,100.00
2022-11-20T20:58:32.009Z,100.00
2022-11-20T21:03:34.136Z,100.00
2022-11-20T21:08:39.192Z,100.00
2022-11-20T21:13:45.385Z,100.00
2022-11-20T21:18:46.995Z,100.00
2022-11-20T21:23:48.398Z,100.00
2022-11-20T21:28:50.116Z,100.00
2022-11-20T21:33:52.435Z,100.00
2022-11-20T21:38:55.040Z,100.00
2022-11-20T21:49:18.299Z,100.00
2022-11-20T21:54:19.603Z,100.00
2022-11-20T21:59:24.045Z,100.00
2022-11-20T22:04:25.608Z,100.00
2022-11-20T22:09:27.150Z,100.00
2022-11-20T22:14:28.756Z,100.00
2022-11-20T22:19:30.236Z,100.00
2022-11-20T22:24:31.539Z,100.00
2022-11-20T22:29:32.847Z,100.00
2022-11-20T22:34:34.202Z,100.00
2022-11-20T22:39:36.568Z,100.00
2022-11-20T22:44:37.893Z,100.00
2022-11-20T22:49:39.217Z,100.00
2022-11-20T22:54:40.545Z,100.00
2022-11-20T22:59:41.889Z,100.00
2022-11-20T23:04:43.704Z,100.00
2022-11-20T23:09:45.043Z,100.00
2022-11-20T23:14:46.421Z,100.00
2022-11-20T23:19:47.751Z,100.00
2022-11-20T23:24:49.070Z,100.00
2022-11-20T23:29:50.378Z,100.00
2022-11-20T23:34:51.681Z,100.00
2022-11-20T23:39:53.013Z,100.00
2022-11-20T23:44:54.338Z,100.00
2022-11-20T23:49:55.682Z,100.00
2022-11-20T23:54:57.018Z,100.00
2022-11-20T23:59:58.373Z,100.00
